Aviation Digital Data Service (ADDS)

Output produced by METARs form (1042 UTC 25 October 2020)
found at http://aviationweather.gov/metar/data/
 
METAR text: EYKA 251020Z 18007KT 150V220 CAVOK 13/08 Q1015
Conditions at: EYKA (KAUNAS , LT) observed 1020 UTC 25 October 2020
Temperature: 13.0°C (55°F)
Dewpoint: 8.0°C (46°F) [RH = 72%]
Pressure (altimeter): 29.97 inches Hg (1015.0 mb)
Winds: from the S (180 degrees) at 8 MPH (7 knots; 3.6 m/s)
Visibility: 6 or more miles (10+ km)
Ceiling: ceiling and visibility are OK
Clouds: unknown
Weather: no significant weather observed at this time

METAR text: EYKA 250950Z 17007KT 140V210 9999 SCT013 13/08 Q1015
Conditions at: EYKA (KAUNAS , LT) observed 0950 UTC 25 October 2020
Temperature: 13.0°C (55°F)
Dewpoint: 8.0°C (46°F) [RH = 72%]
Pressure (altimeter): 29.97 inches Hg (1015.0 mb)
Winds: from the S (170 degrees) at 8 MPH (7 knots; 3.6 m/s)
Visibility: 6 or more miles (10+ km)
Ceiling: at least 12,000 feet AGL
Clouds: scattered clouds at 1300 feet AGL
Weather: no significant weather observed at this time

METAR text: EYKA 250920Z VRB05KT 9999 FEW011 SCT013 12/08 Q1015
Conditions at: EYKA (KAUNAS , LT) observed 0920 UTC 25 October 2020
Temperature: 12.0°C (54°F)
Dewpoint: 8.0°C (46°F) [RH = 76%]
Pressure (altimeter): 29.97 inches Hg (1015.0 mb)
Winds: variable direction winds at 6 MPH (5 knots; 2.6 m/s)
Visibility: 6 or more miles (10+ km)
Ceiling: at least 12,000 feet AGL
Clouds: few clouds at 1100 feet AGL
scattered clouds at 1300 feet AGL
Weather: no significant weather observed at this time

METAR text: EYKA 250850Z 19005KT 150V220 9999 SCT010 12/08 Q1015
Conditions at: EYKA (KAUNAS , LT) observed 0850 UTC 25 October 2020
Temperature: 12.0°C (54°F)
Dewpoint: 8.0°C (46°F) [RH = 76%]
Pressure (altimeter): 29.97 inches Hg (1015.0 mb)
Winds: from the S (190 degrees) at 6 MPH (5 knots; 2.6 m/s)
Visibility: 6 or more miles (10+ km)
Ceiling: at least 12,000 feet AGL
Clouds: scattered clouds at 1000 feet AGL
Weather: no significant weather observed at this time

Forecast for: AMD
Text: TAF AMD EYKA 250757Z 2507/2606 20008KT 6000 OVC010
Forecast period: 0700 to 1200 UTC 25 October 2020
Forecast type: FROM: standard forecast or significant change
Winds: from the SSW (200 degrees) at 9 MPH (8 knots; 4.1 m/s)
Visibility: 4 miles (6 km)
Ceiling: 1000 feet AGL
Clouds: overcast cloud deck at 1000 feet AGL
Weather: no significant weather forecast for this period
Text: TEMPO 2507/2512 OVC005
Forecast period: 0700 to 1200 UTC 25 October 2020
Forecast type: TEMPORARY: The following changes expected for less than half the time period
Visibility: missing
Ceiling: 500 feet AGL
Clouds: overcast cloud deck at 500 feet AGL
Weather: no significant weather forecast for this period
Text: BECMG 2512/2513 OVC015
Forecast period: 1200 UTC 25 October 2020 to 0600 UTC 26 October 2020
Forecast type: BECOMING: Conditions expected to become as follows by 1300 UTC 25 October 2020
Winds: from the SSW (200 degrees) at 9 MPH (8 knots; 4.1 m/s)
Visibility: 4 miles (6 km)
Ceiling: 1500 feet AGL
Clouds: overcast cloud deck at 1500 feet AGL
Weather: no significant weather forecast for this period
Text: TEMPO 2523/2606 1500 MIFG BR
Forecast period: 2300 UTC 25 October 2020 to 0600 UTC 26 October 2020
Forecast type: TEMPORARY: The following changes expected for less than half the time period
Visibility: 0.93 miles (1.50 km)
Ceiling: unknown
Clouds: missing
Weather: MIFG BR  (shallow fog, mist)